createdAt,value
2023-05-20T00:00:53.407Z,4.50
2023-05-20T00:03:21.023Z,4.65
2023-05-20T00:05:49.020Z,5.78
2023-05-20T00:08:19.459Z,4.40
2023-05-20T00:10:48.044Z,4.55
2023-05-20T00:13:15.380Z,4.13
2023-05-20T00:15:43.190Z,4.40
2023-05-20T00:18:10.618Z,4.97
2023-05-20T00:20:38.013Z,5.65
2023-05-20T00:23:05.400Z,4.63
2023-05-20T00:25:33.172Z,5.38
2023-05-20T00:28:00.721Z,4.57
2023-05-20T00:30:28.305Z,4.25
2023-05-20T00:32:55.719Z,3.80
2023-05-20T00:35:23.334Z,4.30
2023-05-20T00:37:50.644Z,4.40
2023-05-20T00:40:18.110Z,5.25
2023-05-20T00:42:45.632Z,4.75
2023-05-20T00:45:12.972Z,4.25
2023-05-20T00:47:43.026Z,4.82
2023-05-20T00:50:11.782Z,4.35
2023-05-20T00:52:41.640Z,5.00
2023-05-20T00:55:11.289Z,4.38
2023-05-20T00:57:38.804Z,4.53
2023-05-20T01:00:08.326Z,5.00
2023-05-20T01:02:35.807Z,5.07
2023-05-20T01:05:03.357Z,4.35
2023-05-20T01:07:31.429Z,4.05
2023-05-20T01:09:59.850Z,4.85
2023-05-20T01:12:48.717Z,4.82
2023-05-20T01:15:18.323Z,5.78
2023-05-20T01:17:52.698Z,5.00
2023-05-20T01:20:21.732Z,4.78
2023-05-20T01:22:57.653Z,6.05
2023-05-20T01:25:26.454Z,5.95
2023-05-20T01:27:58.003Z,5.45
2023-05-20T01:30:41.494Z,5.38
2023-05-20T01:33:13.469Z,5.05
2023-05-20T01:35:43.040Z,5.93
2023-05-20T01:38:11.993Z,6.00
2023-05-20T01:40:41.926Z,5.32
2023-05-20T01:43:10.356Z,5.40
2023-05-20T01:45:39.871Z,5.60
2023-05-20T01:48:08.268Z,6.18
2023-05-20T01:50:35.614Z,5.13
2023-05-20T01:53:03.167Z,4.80
2023-05-20T01:55:31.811Z,5.53
2023-05-20T01:58:00.938Z,5.10
2023-05-20T02:00:28.511Z,6.07
2023-05-20T02:02:56.367Z,7.70
2023-05-20T02:05:24.885Z,6.28
2023-05-20T02:07:52.411Z,5.18
2023-05-20T02:10:21.389Z,4.97
2023-05-20T02:12:49.413Z,4.93
2023-05-20T02:15:16.805Z,7.78
2023-05-20T02:17:44.145Z,5.72
2023-05-20T02:20:14.075Z,5.22
2023-05-20T02:22:41.694Z,6.22
2023-05-20T02:25:11.260Z,6.13
2023-05-20T02:27:39.918Z,5.00
2023-05-20T02:30:09.145Z,4.72
2023-05-20T02:32:36.874Z,5.55
2023-05-20T02:35:05.066Z,5.13
2023-05-20T02:37:32.709Z,6.38
2023-05-20T02:39:59.992Z,6.43
2023-05-20T02:42:27.296Z,5.45
2023-05-20T02:44:58.460Z,5.85
2023-05-20T02:47:27.080Z,5.32
2023-05-20T02:49:54.439Z,6.05
2023-05-20T02:52:22.119Z,6.30
2023-05-20T02:54:49.553Z,5.93
2023-05-20T02:57:16.941Z,5.75
2023-05-20T02:59:44.301Z,7.13
2023-05-20T03:02:11.622Z,6.38
2023-05-20T03:04:41.131Z,6.80
2023-05-20T03:07:09.056Z,6.18
2023-05-20T03:09:36.679Z,5.90
2023-05-20T03:12:04.254Z,6.32
2023-05-20T03:14:31.576Z,6.28
2023-05-20T03:17:00.104Z,6.07
2023-05-20T03:19:28.466Z,5.60
2023-05-20T03:21:55.956Z,5.80
2023-05-20T03:24:24.706Z,7.20
2023-05-20T03:26:52.030Z,6.57
2023-05-20T03:29:19.942Z,6.30
2023-05-20T03:31:47.312Z,6.28
2023-05-20T03:34:14.765Z,5.53
2023-05-20T03:36:42.904Z,6.68
2023-05-20T03:39:10.242Z,6.28
2023-05-20T03:41:38.017Z,5.28
2023-05-20T03:44:05.577Z,6.82
2023-05-20T03:46:34.354Z,8.18
2023-05-20T03:49:02.516Z,5.32
2023-05-20T03:51:30.311Z,6.60
2023-05-20T03:54:04.010Z,6.47
2023-05-20T03:56:31.680Z,5.65
2023-05-20T03:58:59.080Z,6.70
2023-05-20T04:01:26.384Z,6.40
2023-05-20T04:03:53.886Z,6.38
2023-05-20T04:06:22.557Z,5.13
2023-05-20T04:08:51.244Z,5.55
2023-05-20T04:11:21.735Z,7.20
2023-05-20T04:13:49.075Z,7.18
2023-05-20T04:16:16.778Z,7.25
2023-05-20T04:18:46.118Z,5.70
2023-05-20T04:21:14.157Z,6.50
2023-05-20T04:23:43.476Z,6.32
2023-05-20T04:26:10.985Z,7.05
2023-05-20T04:28:38.952Z,6.03
2023-05-20T04:31:06.707Z,7.50
2023-05-20T04:33:39.479Z,6.05
2023-05-20T04:36:15.338Z,7.10
2023-05-20T04:38:44.526Z,6.78
2023-05-20T04:41:13.154Z,6.65
2023-05-20T04:43:40.603Z,6.03
2023-05-20T04:46:08.889Z,8.15
2023-05-20T04:48:37.190Z,6.28
2023-05-20T04:51:04.881Z,7.07
2023-05-20T04:53:33.946Z,7.28
2023-05-20T04:56:01.877Z,6.55
2023-05-20T04:58:31.728Z,6.68
2023-05-20T05:00:59.813Z,6.68
2023-05-20T05:03:27.240Z,6.40
2023-05-20T05:05:59.134Z,6.30
2023-05-20T05:08:27.135Z,6.18
2023-05-20T05:10:54.766Z,6.28
2023-05-20T05:13:22.107Z,6.38
2023-05-20T05:15:58.540Z,5.53
2023-05-20T05:18:27.148Z,5.57
2023-05-20T05:21:06.790Z,6.43
2023-05-20T05:23:35.716Z,5.57
2023-05-20T05:26:03.506Z,5.95
2023-05-20T05:28:31.007Z,7.03
2023-05-20T05:30:59.023Z,6.40
2023-05-20T05:33:26.992Z,5.75
2023-05-20T05:35:58.942Z,6.07
2023-05-20T05:38:26.490Z,6.05
2023-05-20T05:40:54.018Z,5.88
2023-05-20T05:43:21.853Z,5.72
2023-05-20T05:45:49.832Z,5.93
2023-05-20T05:48:17.258Z,5.95
2023-05-20T05:50:46.721Z,5.55
2023-05-20T05:53:16.969Z,4.82
2023-05-20T05:55:47.949Z,5.85
2023-05-20T05:58:16.420Z,5.85
2023-05-20T06:00:44.018Z,5.40
2023-05-20T06:03:11.517Z,6.90
2023-05-20T06:05:38.863Z,5.78
2023-05-20T06:08:06.326Z,6.05
2023-05-20T06:10:35.862Z,5.97
2023-05-20T06:13:04.182Z,5.15
2023-05-20T06:15:32.415Z,5.20
2023-05-20T06:18:00.017Z,5.65
2023-05-20T06:20:28.355Z,5.68
2023-05-20T06:22:55.724Z,5.40
2023-05-20T06:25:26.094Z,4.90
2023-05-20T06:27:53.411Z,4.72
2023-05-20T06:30:22.204Z,4.70
2023-05-20T06:32:49.636Z,5.25
2023-05-20T06:35:18.402Z,4.97
2023-05-20T06:37:46.249Z,4.97
2023-05-20T06:40:15.115Z,4.70
2023-05-20T06:42:42.452Z,4.65
2023-05-20T06:45:10.528Z,4.82
2023-05-20T06:47:42.851Z,4.10
2023-05-20T06:50:11.560Z,6.35
2023-05-20T06:52:39.179Z,3.88
2023-05-20T06:55:07.973Z,4.55
2023-05-20T06:57:37.130Z,5.00
2023-05-20T07:00:06.425Z,4.53
2023-05-20T07:02:38.251Z,5.05
2023-05-20T07:05:08.076Z,5.18
2023-05-20T07:07:36.386Z,4.32
2023-05-20T07:10:07.412Z,4.88
2023-05-20T07:12:36.798Z,5.75
2023-05-20T07:15:06.950Z,4.30
2023-05-20T07:17:35.000Z,4.32
2023-05-20T07:20:04.363Z,4.03
2023-05-20T07:22:33.520Z,4.70
2023-05-20T07:25:15.159Z,4.07
2023-05-20T07:27:42.501Z,4.30
2023-05-20T07:30:10.505Z,4.45
2023-05-20T07:32:41.097Z,4.85
2023-05-20T07:35:09.740Z,4.57
2023-05-20T07:37:37.069Z,3.75
2023-05-20T07:40:05.844Z,3.80
2023-05-20T07:42:34.335Z,3.60
2023-05-20T07:45:03.421Z,4.03
2023-05-20T07:47:33.197Z,4.40
2023-05-20T07:50:01.045Z,4.32
2023-05-20T07:52:30.977Z,4.88
2023-05-20T07:55:01.083Z,4.30
2023-05-20T07:57:28.416Z,3.83
2023-05-20T07:59:57.455Z,4.95
2023-05-20T08:02:24.990Z,4.63
2023-05-20T08:04:53.147Z,4.75
2023-05-20T08:07:21.213Z,4.53
2023-05-20T08:09:53.305Z,4.15
2023-05-20T08:12:21.892Z,4.43
2023-05-20T08:14:50.274Z,4.18
2023-05-20T08:17:18.970Z,4.57
2023-05-20T08:19:46.470Z,4.22
2023-05-20T08:22:14.845Z,4.45
2023-05-20T08:24:42.298Z,4.38
2023-05-20T08:27:10.582Z,5.00
2023-05-20T08:29:41.291Z,4.40
2023-05-20T08:32:09.665Z,4.10
2023-05-20T08:34:37.134Z,3.97
2023-05-20T08:37:05.342Z,4.78
2023-05-20T08:39:32.680Z,3.65
2023-05-20T08:42:00.331Z,4.20
2023-05-20T08:44:30.109Z,5.07
2023-05-20T08:46:58.906Z,4.00
2023-05-20T08:49:26.706Z,3.70
2023-05-20T08:51:54.043Z,4.05
2023-05-20T08:54:24.374Z,4.03
2023-05-20T08:56:55.921Z,3.45
2023-05-20T08:59:23.706Z,4.25
2023-05-20T09:01:51.076Z,3.50
2023-05-20T09:04:19.473Z,3.47
2023-05-20T09:06:49.399Z,3.60
2023-05-20T09:09:17.094Z,3.67
2023-05-20T09:11:47.394Z,3.33
2023-05-20T09:14:15.423Z,3.83
2023-05-20T09:16:43.312Z,4.10
2023-05-20T09:19:11.576Z,3.55
2023-05-20T09:21:42.627Z,3.40
2023-05-20T09:24:09.922Z,4.40
2023-05-20T09:26:37.276Z,4.22
2023-05-20T09:29:05.158Z,4.05
2023-05-20T09:31:34.515Z,5.22
2023-05-20T09:34:02.873Z,6.05
2023-05-20T09:36:34.402Z,3.60
2023-05-20T09:39:13.118Z,3.67
2023-05-20T09:42:12.944Z,4.72
2023-05-20T09:44:42.902Z,3.40
2023-05-20T09:47:11.107Z,3.50
2023-05-20T09:49:42.681Z,4.18
2023-05-20T09:52:13.068Z,4.07
2023-05-20T09:54:44.885Z,3.83
2023-05-20T09:57:14.046Z,3.83
2023-05-20T09:59:44.195Z,3.50
2023-05-20T10:02:13.917Z,3.97
2023-05-20T10:04:50.419Z,3.78
2023-05-20T10:07:42.421Z,4.20
2023-05-20T10:11:13.119Z,3.63
2023-05-20T10:13:58.334Z,3.85
2023-05-20T10:17:10.318Z,3.78
2023-05-20T10:19:39.871Z,3.88
2023-05-20T10:22:13.909Z,3.97
2023-05-20T10:24:44.709Z,3.33
2023-05-20T10:27:15.750Z,3.10
2023-05-20T10:29:53.393Z,3.55
2023-05-20T10:32:57.529Z,3.17
2023-05-20T10:35:32.230Z,4.30
2023-05-20T10:38:13.043Z,3.95
2023-05-20T10:40:41.532Z,2.70
2023-05-20T10:43:26.014Z,3.97
2023-05-20T10:45:57.531Z,4.85
2023-05-20T10:48:34.587Z,4.53
2023-05-20T10:51:06.501Z,3.95
2023-05-20T10:53:45.700Z,3.65
2023-05-20T10:56:27.457Z,3.40
2023-05-20T10:58:58.453Z,3.47
2023-05-20T11:01:37.058Z,3.47
2023-05-20T11:04:08.539Z,3.70
2023-05-20T11:06:39.655Z,3.85
2023-05-20T11:09:20.744Z,3.33
2023-05-20T11:11:58.388Z,3.30
2023-05-20T11:14:33.139Z,3.58
2023-05-20T11:17:06.057Z,3.00
2023-05-20T11:19:50.213Z,2.92
2023-05-20T11:22:17.700Z,2.80
2023-05-20T11:24:47.544Z,3.22
2023-05-20T11:27:18.146Z,3.13
2023-05-20T11:29:45.641Z,3.22
2023-05-20T11:32:13.120Z,3.47
2023-05-20T11:34:41.139Z,3.05
2023-05-20T11:37:11.121Z,2.92
2023-05-20T11:39:39.759Z,3.40
2023-05-20T11:42:08.086Z,3.30
2023-05-20T11:44:35.633Z,3.15
2023-05-20T11:47:03.824Z,2.83
2023-05-20T11:49:40.269Z,3.60
2023-05-20T11:52:11.179Z,3.05
2023-05-20T11:54:39.741Z,3.30
2023-05-20T11:57:07.845Z,2.42
2023-05-20T11:59:35.608Z,2.90
2023-05-20T12:02:03.076Z,3.10
2023-05-20T12:04:30.368Z,3.13
2023-05-20T12:06:58.450Z,3.20
2023-05-20T12:09:26.112Z,3.47
2023-05-20T12:11:55.886Z,2.85
2023-05-20T12:14:23.421Z,2.50
2023-05-20T12:16:52.343Z,3.40
2023-05-20T12:19:19.921Z,3.42
2023-05-20T12:21:47.363Z,3.85
2023-05-20T12:24:14.720Z,3.17
2023-05-20T12:26:42.028Z,3.20
2023-05-20T12:29:09.430Z,2.88
2023-05-20T12:31:36.887Z,2.88
2023-05-20T12:34:04.596Z,2.65
2023-05-20T12:36:32.376Z,3.05
2023-05-20T12:38:59.673Z,3.10
2023-05-20T12:41:27.064Z,2.75
2023-05-20T12:43:54.607Z,3.25
2023-05-20T12:46:22.130Z,2.95
2023-05-20T12:48:49.672Z,2.95
2023-05-20T12:51:19.279Z,3.75
2023-05-20T12:53:48.772Z,3.38
2023-05-20T12:56:16.388Z,2.95
2023-05-20T12:58:43.695Z,3.38
2023-05-20T13:01:11.104Z,2.50
2023-05-20T13:03:38.627Z,2.80
2023-05-20T13:06:06.964Z,3.22
2023-05-20T13:08:36.606Z,3.08
2023-05-20T13:11:05.613Z,3.17
2023-05-20T13:13:33.051Z,2.78
2023-05-20T13:16:01.808Z,3.67
2023-05-20T13:18:29.067Z,3.13
2023-05-20T13:20:56.719Z,3.40
2023-05-20T13:23:24.814Z,3.03
2023-05-20T13:25:52.341Z,3.40
2023-05-20T13:28:20.833Z,3.45
2023-05-20T13:30:50.254Z,3.40
2023-05-20T13:33:17.579Z,3.60
2023-05-20T13:35:44.902Z,2.83
2023-05-20T13:38:12.198Z,3.10
2023-05-20T13:40:39.733Z,4.03
2023-05-20T13:43:07.293Z,3.30
2023-05-20T13:45:34.542Z,3.25
2023-05-20T13:48:02.112Z,3.20
2023-05-20T13:50:29.640Z,2.70
2023-05-20T13:52:57.346Z,2.80
2023-05-20T13:55:25.173Z,3.00
2023-05-20T13:57:56.648Z,3.38
2023-05-20T14:00:23.967Z,2.80
2023-05-20T14:02:51.402Z,3.33
2023-05-20T14:05:18.947Z,2.58
2023-05-20T14:07:46.222Z,3.45
2023-05-20T14:10:13.604Z,3.22
2023-05-20T14:12:42.966Z,2.90
2023-05-20T14:15:11.450Z,3.42
2023-05-20T14:17:38.792Z,3.05
2023-05-20T14:20:09.770Z,2.95
2023-05-20T14:22:37.660Z,3.28
2023-05-20T14:25:09.513Z,2.83
2023-05-20T14:27:40.035Z,3.08
2023-05-20T14:30:08.945Z,3.17
2023-05-20T14:32:36.400Z,3.10
2023-05-20T14:35:05.014Z,2.83
2023-05-20T14:37:32.965Z,2.90
2023-05-20T14:40:01.939Z,3.22
2023-05-20T14:42:29.299Z,2.90
2023-05-20T14:44:56.620Z,2.95
2023-05-20T14:47:23.985Z,2.97
2023-05-20T14:49:51.873Z,3.33
2023-05-20T14:52:19.683Z,2.75
2023-05-20T14:54:47.063Z,3.47
2023-05-20T14:57:16.253Z,2.75
2023-05-20T14:59:45.097Z,3.05
2023-05-20T15:02:15.434Z,3.03
2023-05-20T15:04:45.112Z,3.67
2023-05-20T15:07:12.555Z,3.72
2023-05-20T15:09:40.829Z,3.38
2023-05-20T15:12:10.996Z,2.80
2023-05-20T15:14:38.380Z,2.70
2023-05-20T15:17:11.768Z,3.65
2023-05-20T15:19:41.837Z,3.15
2023-05-20T15:22:09.426Z,2.97
2023-05-20T15:24:37.069Z,2.85
2023-05-20T15:27:05.299Z,2.80
2023-05-20T15:29:32.667Z,2.40
2023-05-20T15:32:01.126Z,3.25
2023-05-20T15:34:28.472Z,2.35
2023-05-20T15:36:56.022Z,3.08
2023-05-20T15:39:23.427Z,3.05
2023-05-20T15:41:52.103Z,2.63
2023-05-20T15:44:19.636Z,2.63
2023-05-20T15:46:47.057Z,2.85
2023-05-20T15:49:14.420Z,2.28
2023-05-20T15:51:52.292Z,2.80
2023-05-20T15:54:27.048Z,2.72
2023-05-20T15:56:54.693Z,2.63
2023-05-20T15:59:22.030Z,3.00
2023-05-20T16:01:49.621Z,2.72
2023-05-20T16:04:19.301Z,3.17
2023-05-20T16:06:47.506Z,3.10
2023-05-20T16:09:14.826Z,2.50
2023-05-20T16:11:42.430Z,2.70
2023-05-20T16:14:09.912Z,2.40
2023-05-20T16:16:37.281Z,2.92
2023-05-20T16:19:04.746Z,2.70
2023-05-20T16:21:32.046Z,2.50
2023-05-20T16:24:00.770Z,2.90
2023-05-20T16:26:31.501Z,2.40
2023-05-20T16:28:58.872Z,2.50
2023-05-20T16:31:26.710Z,2.80
2023-05-20T16:33:54.177Z,2.40
2023-05-20T16:36:21.663Z,2.95
2023-05-20T16:38:50.579Z,2.50
2023-05-20T16:41:18.063Z,2.58
2023-05-20T16:43:45.419Z,2.72
2023-05-20T16:46:14.603Z,2.45
2023-05-20T16:48:42.902Z,2.47
2023-05-20T16:51:11.953Z,3.05
2023-05-20T16:53:39.252Z,2.67
2023-05-20T16:56:08.077Z,2.58
2023-05-20T16:58:35.658Z,2.28
2023-05-20T17:01:04.256Z,2.70
2023-05-20T17:03:32.506Z,2.35
2023-05-20T17:05:59.815Z,2.78
2023-05-20T17:08:27.283Z,2.47
2023-05-20T17:10:54.603Z,2.67
2023-05-20T17:13:22.493Z,3.00
2023-05-20T17:15:49.771Z,2.88
2023-05-20T17:18:17.244Z,2.42
2023-05-20T17:20:44.648Z,2.83
2023-05-20T17:23:11.987Z,2.72
2023-05-20T17:25:39.273Z,2.80
2023-05-20T17:28:07.950Z,2.65
2023-05-20T17:30:37.039Z,2.83
2023-05-20T17:33:04.583Z,2.33
2023-05-20T17:35:32.005Z,2.67
2023-05-20T17:37:59.335Z,2.50
2023-05-20T17:40:26.622Z,3.05
2023-05-20T17:42:54.135Z,2.55
2023-05-20T17:45:21.673Z,2.97
2023-05-20T17:47:49.158Z,2.72
2023-05-20T17:50:16.989Z,2.75
2023-05-20T17:52:44.259Z,2.40
2023-05-20T17:55:12.944Z,3.25
2023-05-20T17:57:40.726Z,2.90
2023-05-20T18:00:09.336Z,2.50
2023-05-20T18:02:38.404Z,2.58
2023-05-20T18:05:07.710Z,2.47
2023-05-20T18:07:36.140Z,2.10
2023-05-20T18:10:05.584Z,2.78
2023-05-20T18:12:32.952Z,2.65
2023-05-20T18:15:00.462Z,2.55
2023-05-20T18:17:28.792Z,2.30
2023-05-20T18:19:56.170Z,2.40
2023-05-20T18:22:23.453Z,3.03
2023-05-20T18:24:50.779Z,2.58
2023-05-20T18:27:18.203Z,2.72
2023-05-20T18:29:45.587Z,2.42
2023-05-20T18:32:12.887Z,2.60
2023-05-20T18:34:40.180Z,2.60
2023-05-20T18:37:08.783Z,2.00
2023-05-20T18:39:36.899Z,2.47
2023-05-20T18:42:04.631Z,3.15
2023-05-20T18:44:32.098Z,2.65
2023-05-20T18:46:59.482Z,2.40
2023-05-20T18:49:28.308Z,2.30
2023-05-20T18:51:56.074Z,2.45
2023-05-20T18:54:27.530Z,2.97
2023-05-20T18:56:59.093Z,2.60
2023-05-20T18:59:27.445Z,2.80
2023-05-20T19:01:54.752Z,2.55
2023-05-20T19:04:23.441Z,3.25
2023-05-20T19:06:53.334Z,2.47
2023-05-20T19:09:22.194Z,2.20
2023-05-20T19:11:55.943Z,2.97
2023-05-20T19:14:24.063Z,2.55
2023-05-20T19:16:52.593Z,2.97
2023-05-20T19:19:20.043Z,2.35
2023-05-20T19:21:47.375Z,3.08
2023-05-20T19:24:14.844Z,2.58
2023-05-20T19:26:42.261Z,3.10
2023-05-20T19:29:10.717Z,2.63
2023-05-20T19:31:41.558Z,2.80
2023-05-20T19:34:10.312Z,2.80
2023-05-20T19:36:38.693Z,3.10
2023-05-20T19:39:06.753Z,2.85
2023-05-20T19:41:34.128Z,2.75
2023-05-20T19:44:03.603Z,2.65
2023-05-20T19:46:31.618Z,3.42
2023-05-20T19:49:05.071Z,2.67
2023-05-20T19:51:33.455Z,2.80
2023-05-20T19:54:01.084Z,3.33
2023-05-20T19:56:28.788Z,3.05
2023-05-20T19:58:57.581Z,3.17
2023-05-20T20:01:24.858Z,2.80
2023-05-20T20:03:52.231Z,2.90
2023-05-20T20:06:22.051Z,3.70
2023-05-20T20:08:49.868Z,3.08
2023-05-20T20:11:17.193Z,3.17
2023-05-20T20:13:45.599Z,3.08
2023-05-20T20:16:13.186Z,3.25
2023-05-20T20:18:40.657Z,3.05
2023-05-20T20:21:09.241Z,2.70
2023-05-20T20:23:37.965Z,2.95
2023-05-20T20:26:06.520Z,2.97
2023-05-20T20:28:34.180Z,2.85
2023-05-20T20:31:03.988Z,2.90
2023-05-20T20:33:31.899Z,3.25
2023-05-20T20:36:01.062Z,3.15
2023-05-20T20:38:28.577Z,3.75
2023-05-20T20:40:55.898Z,3.38
2023-05-20T20:43:23.646Z,3.00
2023-05-20T20:45:53.218Z,2.97
2023-05-20T20:48:26.605Z,3.30
2023-05-20T20:50:54.296Z,2.92
2023-05-20T20:53:21.798Z,2.58
2023-05-20T20:55:51.367Z,3.40
2023-05-20T20:58:19.064Z,2.78
2023-05-20T21:00:48.752Z,2.80
2023-05-20T21:03:16.474Z,2.45
2023-05-20T21:05:44.481Z,2.72
2023-05-20T21:08:13.163Z,3.30
2023-05-20T21:10:40.647Z,3.35
2023-05-20T21:13:08.081Z,2.80
2023-05-20T21:15:35.734Z,2.75
2023-05-20T21:18:03.584Z,3.25
2023-05-20T21:20:32.037Z,3.65
2023-05-20T21:22:59.894Z,3.72
2023-05-20T21:25:27.207Z,4.57
2023-05-20T21:27:55.539Z,4.72
2023-05-20T21:30:24.117Z,4.10
2023-05-20T21:32:51.452Z,4.47
2023-05-20T21:35:18.827Z,4.45
2023-05-20T21:37:46.130Z,3.95
2023-05-20T21:40:14.871Z,4.10
2023-05-20T21:42:42.167Z,3.83
2023-05-20T21:45:10.670Z,3.72
2023-05-20T21:47:38.062Z,3.35
2023-05-20T21:50:07.205Z,3.17
2023-05-20T21:52:34.504Z,4.10
2023-05-20T21:55:02.297Z,3.35
2023-05-20T21:57:29.536Z,4.35
2023-05-20T21:59:56.805Z,4.00
2023-05-20T22:02:25.417Z,5.10
2023-05-20T22:04:52.767Z,4.28
2023-05-20T22:07:20.075Z,5.10
2023-05-20T22:09:47.392Z,5.10
2023-05-20T22:12:15.483Z,5.72
2023-05-20T22:14:42.902Z,5.45
2023-05-20T22:17:10.548Z,6.05
2023-05-20T22:19:37.866Z,5.25
2023-05-20T22:22:05.374Z,5.35
2023-05-20T22:24:32.672Z,5.18
2023-05-20T22:27:01.713Z,5.57
2023-05-20T22:29:31.533Z,4.50
2023-05-20T22:31:59.530Z,4.70
2023-05-20T22:34:26.926Z,5.18
2023-05-20T22:36:55.467Z,4.35
2023-05-20T22:39:23.526Z,4.32
2023-05-20T22:41:50.906Z,4.65
2023-05-20T22:44:18.557Z,4.93
2023-05-20T22:46:46.145Z,4.63
2023-05-20T22:49:13.435Z,4.80
2023-05-20T22:51:41.865Z,4.70
2023-05-20T22:54:09.703Z,4.55
2023-05-20T22:56:37.239Z,4.18
2023-05-20T22:59:04.849Z,4.70
2023-05-20T23:01:32.650Z,4.35
2023-05-20T23:04:01.068Z,4.72
2023-05-20T23:06:28.393Z,5.20
2023-05-20T23:08:55.850Z,4.65
2023-05-20T23:11:23.873Z,4.30
2023-05-20T23:13:51.461Z,4.53
2023-05-20T23:16:18.736Z,4.93
2023-05-20T23:18:47.507Z,5.07
2023-05-20T23:21:14.816Z,5.00
2023-05-20T23:23:42.132Z,4.53
2023-05-20T23:26:09.478Z,4.03
2023-05-20T23:28:40.095Z,4.82
2023-05-20T23:31:09.334Z,4.72
2023-05-20T23:33:36.768Z,4.60
2023-05-20T23:36:04.572Z,4.60
2023-05-20T23:38:32.083Z,3.95
2023-05-20T23:40:59.304Z,4.93
2023-05-20T23:43:26.607Z,4.93
2023-05-20T23:45:54.213Z,4.93
2023-05-20T23:48:21.490Z,4.57
2023-05-20T23:50:49.103Z,4.88
2023-05-20T23:53:17.064Z,4.80
2023-05-20T23:55:45.216Z,4.82
2023-05-20T23:58:12.661Z,4.47
